createdAt,value
2023-05-10T00:01:25.080Z,100.00
2023-05-10T00:03:53.929Z,100.00
2023-05-10T00:06:23.999Z,100.00
2023-05-10T00:08:52.603Z,100.00
2023-05-10T00:11:22.999Z,100.00
2023-05-10T00:13:51.960Z,100.00
2023-05-10T00:16:20.624Z,100.00
2023-05-10T00:18:49.275Z,100.00
2023-05-10T00:21:17.935Z,100.00
2023-05-10T00:23:47.861Z,100.00
2023-05-10T00:26:17.597Z,100.00
2023-05-10T00:28:46.247Z,100.00
2023-05-10T00:31:15.656Z,100.00
2023-05-10T00:33:44.329Z,100.00
2023-05-10T00:36:13.787Z,100.00
2023-05-10T00:38:42.384Z,100.00
2023-05-10T00:41:12.377Z,100.00
2023-05-10T00:43:41.044Z,100.00
2023-05-10T00:46:09.890Z,100.00
2023-05-10T00:48:38.580Z,100.00
2023-05-10T00:51:07.268Z,100.00
2023-05-10T00:53:36.437Z,100.00
2023-05-10T00:56:05.226Z,100.00
2023-05-10T00:58:35.178Z,100.00
2023-05-10T01:01:03.907Z,100.00
2023-05-10T01:03:34.071Z,100.00
2023-05-10T01:06:02.821Z,100.00
2023-05-10T01:08:31.604Z,100.00
2023-05-10T01:11:00.402Z,100.00
2023-05-10T01:13:33.886Z,100.00
2023-05-10T01:16:04.375Z,100.00
2023-05-10T01:18:34.138Z,100.00
2023-05-10T01:21:13.276Z,100.00
2023-05-10T01:23:51.504Z,100.00
2023-05-10T01:26:39.166Z,100.00
2023-05-10T01:29:31.253Z,100.00
2023-05-10T01:32:23.877Z,100.00
2023-05-10T01:34:57.126Z,100.00
2023-05-10T01:37:32.670Z,100.00
2023-05-10T01:40:06.257Z,100.00
2023-05-10T01:42:39.519Z,100.00
2023-05-10T01:45:15.472Z,100.00
2023-05-10T01:47:46.080Z,100.00
2023-05-10T01:50:19.634Z,100.00
2023-05-10T01:52:52.533Z,100.00
2023-05-10T01:55:23.386Z,100.00
2023-05-10T01:57:55.183Z,100.00
2023-05-10T02:00:24.573Z,100.00
2023-05-10T02:02:54.975Z,100.00
2023-05-10T02:05:24.436Z,100.00
2023-05-10T02:07:53.664Z,100.00
2023-05-10T02:10:22.825Z,100.00
2023-05-10T02:12:52.174Z,100.00
2023-05-10T02:15:22.888Z,100.00
2023-05-10T02:17:51.590Z,100.00
2023-05-10T02:20:22.708Z,100.00
2023-05-10T02:22:54.127Z,100.00
2023-05-10T02:25:23.809Z,100.00
2023-05-10T02:27:53.550Z,100.00
2023-05-10T02:30:22.702Z,100.00
2023-05-10T02:32:51.417Z,100.00
2023-05-10T02:35:21.754Z,100.00
2023-05-10T02:37:50.838Z,100.00
2023-05-10T02:40:20.148Z,100.00
2023-05-10T02:42:50.878Z,100.00
2023-05-10T02:45:25.823Z,100.00
2023-05-10T02:47:54.736Z,100.00
2023-05-10T02:50:26.580Z,100.00
2023-05-10T02:52:58.663Z,100.00
2023-05-10T02:55:29.061Z,100.00
2023-05-10T02:58:00.707Z,100.00
2023-05-10T03:00:29.404Z,100.00
2023-05-10T03:02:58.925Z,100.00
2023-05-10T03:05:28.975Z,100.00
2023-05-10T03:07:57.771Z,100.00
2023-05-10T03:10:29.930Z,100.00
2023-05-10T03:13:08.345Z,100.00
2023-05-10T03:15:44.750Z,100.00
2023-05-10T03:18:17.962Z,100.00
2023-05-10T03:20:50.206Z,100.00
2023-05-10T03:23:23.606Z,100.00
2023-05-10T03:25:52.618Z,100.00
2023-05-10T03:28:22.744Z,100.00
2023-05-10T03:30:51.702Z,100.00
2023-05-10T03:33:20.368Z,100.00
2023-05-10T03:35:50.354Z,100.00
2023-05-10T03:38:19.023Z,100.00
2023-05-10T03:40:47.613Z,100.00
2023-05-10T03:43:16.232Z,100.00
2023-05-10T03:45:44.826Z,100.00
2023-05-10T03:48:14.686Z,100.00
2023-05-10T03:50:43.758Z,100.00
2023-05-10T03:53:14.083Z,100.00
2023-05-10T03:55:42.753Z,100.00
2023-05-10T03:58:13.065Z,100.00
2023-05-10T04:00:46.060Z,100.00
2023-05-10T04:03:15.210Z,100.00
2023-05-10T04:05:43.877Z,100.00
2023-05-10T04:08:13.873Z,100.00
2023-05-10T04:10:42.479Z,100.00
2023-05-10T04:13:11.260Z,100.00
2023-05-10T04:15:39.940Z,100.00
2023-05-10T04:18:08.944Z,100.00
2023-05-10T04:20:37.709Z,100.00
2023-05-10T04:23:06.282Z,100.00
2023-05-10T04:25:37.387Z,100.00
2023-05-10T04:28:06.200Z,100.00
2023-05-10T04:30:34.876Z,100.00
2023-05-10T04:33:03.543Z,100.00
2023-05-10T04:35:32.184Z,100.00
2023-05-10T04:38:00.802Z,100.00
2023-05-10T04:40:29.571Z,100.00
2023-05-10T04:42:59.566Z,100.00
2023-05-10T04:45:28.191Z,100.00
2023-05-10T04:47:56.853Z,100.00
2023-05-10T04:50:25.504Z,100.00
2023-05-10T04:52:54.097Z,100.00
2023-05-10T04:55:22.741Z,100.00
2023-05-10T04:57:51.415Z,100.00
2023-05-10T05:00:21.808Z,100.00
2023-05-10T05:02:50.554Z,100.00
2023-05-10T05:05:19.388Z,100.00
2023-05-10T05:07:47.966Z,100.00
2023-05-10T05:10:17.027Z,100.00
2023-05-10T05:12:45.938Z,100.00
2023-05-10T05:15:16.175Z,100.00
2023-05-10T05:17:46.451Z,100.00
2023-05-10T05:20:15.562Z,100.00
2023-05-10T05:22:44.322Z,100.00
2023-05-10T05:25:13.615Z,100.00
2023-05-10T05:27:42.298Z,100.00
2023-05-10T05:30:12.165Z,100.00
2023-05-10T05:32:42.937Z,100.00
2023-05-10T05:35:13.173Z,100.00
2023-05-10T05:37:41.801Z,100.00
2023-05-10T05:40:14.017Z,100.00
2023-05-10T05:42:42.904Z,100.00
2023-05-10T05:45:13.905Z,100.00
2023-05-10T05:47:42.868Z,100.00
2023-05-10T05:50:13.357Z,100.00
2023-05-10T05:52:41.972Z,100.00
2023-05-10T05:55:10.781Z,100.00
2023-05-10T05:57:39.537Z,100.00
2023-05-10T06:00:09.984Z,100.00
2023-05-10T06:02:38.671Z,100.00
2023-05-10T06:05:08.665Z,100.00
2023-05-10T06:07:38.605Z,100.00
2023-05-10T06:10:08.631Z,100.00
2023-05-10T06:12:37.522Z,100.00
2023-05-10T06:15:06.847Z,100.00
2023-05-10T06:17:35.544Z,100.00
2023-05-10T06:20:04.558Z,100.00
2023-05-10T06:22:33.213Z,100.00
2023-05-10T06:25:03.596Z,100.00
2023-05-10T06:27:32.478Z,100.00
2023-05-10T06:30:12.255Z,100.00
2023-05-10T06:32:42.216Z,100.00
2023-05-10T06:35:11.339Z,100.00
2023-05-10T06:37:39.947Z,100.00
2023-05-10T06:40:11.882Z,100.00
2023-05-10T06:42:40.522Z,100.00
2023-05-10T06:45:10.818Z,100.00
2023-05-10T06:47:39.617Z,100.00
2023-05-10T06:50:09.390Z,100.00
2023-05-10T06:52:38.079Z,100.00
2023-05-10T06:55:07.591Z,100.00
2023-05-10T06:57:37.730Z,100.00
2023-05-10T07:00:07.939Z,100.00
2023-05-10T07:02:36.682Z,100.00
2023-05-10T07:05:06.652Z,100.00
2023-05-10T07:07:35.289Z,100.00
2023-05-10T07:10:04.053Z,100.00
2023-05-10T07:12:32.876Z,100.00
2023-05-10T07:15:02.960Z,100.00
2023-05-10T07:17:31.730Z,100.00
2023-05-10T07:20:01.139Z,100.00
2023-05-10T07:22:29.764Z,100.00
2023-05-10T07:24:58.420Z,100.00
2023-05-10T07:27:27.333Z,100.00
2023-05-10T07:29:57.442Z,100.00
2023-05-10T07:32:27.514Z,100.00
2023-05-10T07:34:56.358Z,100.00
2023-05-10T07:37:25.014Z,100.00
2023-05-10T07:39:53.674Z,98.64
2023-05-10T07:42:22.360Z,99.53
2023-05-10T07:44:50.963Z,99.38
2023-05-10T07:47:19.900Z,99.46
2023-05-10T07:49:49.857Z,100.00
2023-05-10T07:52:18.585Z,98.43
2023-05-10T07:54:47.185Z,94.13
2023-05-10T07:57:18.497Z,94.43
2023-05-10T07:59:47.823Z,94.31
2023-05-10T08:02:16.549Z,99.92
2023-05-10T08:04:45.447Z,100.00
2023-05-10T08:07:15.621Z,94.33
2023-05-10T08:09:44.285Z,94.77
2023-05-10T08:12:12.911Z,98.62
2023-05-10T08:14:41.583Z,98.37
2023-05-10T08:17:11.005Z,97.81
2023-05-10T08:19:39.641Z,92.36
2023-05-10T08:22:08.457Z,95.40
2023-05-10T08:24:39.447Z,93.55
2023-05-10T08:27:08.243Z,92.21
2023-05-10T08:29:48.812Z,95.43
2023-05-10T08:32:17.943Z,98.02
2023-05-10T08:34:46.521Z,90.70
2023-05-10T08:37:15.266Z,88.38
2023-05-10T08:39:46.209Z,91.92
2023-05-10T08:42:18.045Z,92.07
2023-05-10T08:44:49.505Z,93.84
2023-05-10T08:47:19.261Z,93.20
2023-05-10T08:49:49.648Z,97.51
2023-05-10T08:52:18.875Z,99.25
2023-05-10T08:54:49.392Z,90.97
2023-05-10T08:57:18.207Z,91.61
2023-05-10T08:59:46.938Z,91.06
2023-05-10T09:02:18.581Z,95.55
2023-05-10T09:04:47.704Z,94.42
2023-05-10T09:07:16.986Z,90.08
2023-05-10T09:09:46.036Z,91.12
2023-05-10T09:12:16.653Z,92.81
2023-05-10T09:14:46.732Z,95.36
2023-05-10T09:17:15.595Z,91.55
2023-05-10T09:19:44.276Z,94.20
2023-05-10T09:22:12.909Z,92.65
2023-05-10T09:24:46.016Z,93.08
2023-05-10T09:27:16.043Z,90.56
2023-05-10T09:29:45.055Z,90.34
2023-05-10T09:32:13.983Z,91.36
2023-05-10T09:34:43.252Z,93.49
2023-05-10T09:37:11.959Z,90.99
2023-05-10T09:39:42.224Z,86.61
2023-05-10T09:42:11.689Z,86.43
2023-05-10T09:44:41.957Z,86.43
2023-05-10T09:47:10.612Z,87.31
2023-05-10T09:49:39.266Z,90.57
2023-05-10T09:52:09.181Z,95.18
2023-05-10T09:54:37.895Z,94.19
2023-05-10T09:57:06.925Z,96.11
2023-05-10T09:59:36.781Z,95.91
2023-05-10T10:02:06.931Z,95.55
2023-05-10T10:04:41.673Z,90.71
2023-05-10T10:07:10.828Z,93.33
2023-05-10T10:09:39.631Z,97.48
2023-05-10T10:12:08.471Z,97.14
2023-05-10T10:14:37.149Z,96.52
2023-05-10T10:17:08.592Z,92.53
2023-05-10T10:19:38.401Z,91.41
2023-05-10T10:22:07.702Z,89.96
2023-05-10T10:24:36.375Z,87.46
2023-05-10T10:27:11.386Z,87.94
2023-05-10T10:29:45.778Z,91.13
2023-05-10T10:32:24.327Z,79.83
2023-05-10T10:34:53.305Z,82.25
2023-05-10T10:37:21.917Z,77.74
2023-05-10T10:39:51.323Z,78.46
2023-05-10T10:42:47.278Z,82.08
2023-05-10T10:45:16.397Z,80.95
2023-05-10T10:47:46.847Z,79.67
2023-05-10T10:50:17.095Z,78.28
2023-05-10T10:52:46.613Z,74.12
2023-05-10T10:55:16.621Z,72.59
2023-05-10T10:57:50.663Z,74.13
2023-05-10T11:00:31.653Z,73.95
2023-05-10T11:03:07.289Z,74.73
2023-05-10T11:05:41.197Z,79.11
2023-05-10T11:08:18.819Z,78.58
2023-05-10T11:10:55.626Z,76.29
2023-05-10T11:13:34.666Z,77.82
2023-05-10T11:16:17.879Z,73.38
2023-05-10T11:19:03.833Z,71.48
2023-05-10T11:21:33.522Z,71.26
2023-05-10T11:24:06.893Z,69.04
2023-05-10T11:26:36.904Z,70.61
2023-05-10T11:29:06.035Z,69.98
2023-05-10T11:31:34.794Z,69.01
2023-05-10T11:34:04.805Z,71.81
2023-05-10T11:36:35.708Z,70.31
2023-05-10T11:39:04.921Z,69.41
2023-05-10T11:41:33.952Z,69.80
2023-05-10T11:44:02.805Z,71.81
2023-05-10T11:46:31.452Z,71.08
2023-05-10T11:49:05.126Z,73.43
2023-05-10T11:51:37.902Z,69.72
2023-05-10T11:54:08.679Z,70.48
2023-05-10T11:56:37.857Z,68.16
2023-05-10T11:59:06.773Z,72.13
2023-05-10T12:01:36.112Z,74.21
2023-05-10T12:04:05.201Z,77.42
2023-05-10T12:06:39.788Z,78.11
2023-05-10T12:09:08.959Z,80.43
2023-05-10T12:11:41.866Z,82.47
2023-05-10T12:14:12.737Z,80.91
2023-05-10T12:16:41.549Z,82.26
2023-05-10T12:19:10.382Z,81.43
2023-05-10T12:21:42.358Z,85.39
2023-05-10T12:24:11.452Z,92.18
2023-05-10T12:26:40.076Z,93.36
2023-05-10T12:29:16.589Z,92.34
2023-05-10T12:31:52.119Z,89.09
2023-05-10T12:34:27.928Z,88.73
2023-05-10T12:36:58.140Z,85.96
2023-05-10T12:39:26.895Z,89.31
2023-05-10T12:41:55.634Z,94.39
2023-05-10T12:44:24.365Z,94.50
2023-05-10T12:46:52.976Z,88.72
2023-05-10T12:49:21.672Z,89.89
2023-05-10T12:51:50.457Z,92.04
2023-05-10T12:54:20.474Z,78.27
2023-05-10T12:56:49.181Z,79.35
2023-05-10T12:59:17.757Z,79.19
2023-05-10T13:01:46.499Z,81.78
2023-05-10T13:04:15.450Z,85.02
2023-05-10T13:06:44.101Z,87.72
2023-05-10T13:09:12.707Z,87.68
2023-05-10T13:11:42.768Z,85.29
2023-05-10T13:14:11.414Z,90.01
2023-05-10T13:16:40.245Z,89.20
2023-05-10T13:19:08.985Z,85.01
2023-05-10T13:21:37.684Z,85.28
2023-05-10T13:24:06.647Z,85.68
2023-05-10T13:26:35.594Z,86.77
2023-05-10T13:29:05.976Z,86.37
2023-05-10T13:31:36.046Z,88.49
2023-05-10T13:34:05.306Z,89.83
2023-05-10T13:36:33.907Z,91.86
2023-05-10T13:39:04.693Z,92.01
2023-05-10T13:41:33.327Z,90.02
2023-05-10T13:44:01.974Z,89.18
2023-05-10T13:46:32.408Z,82.94
2023-05-10T13:49:01.050Z,81.64
2023-05-10T13:51:29.724Z,87.10
2023-05-10T13:53:58.301Z,85.28
2023-05-10T13:56:26.974Z,84.71
2023-05-10T13:58:55.672Z,86.92
2023-05-10T14:01:24.373Z,85.90
2023-05-10T14:03:54.460Z,84.86
2023-05-10T14:06:23.192Z,86.38
2023-05-10T14:08:51.875Z,87.29
2023-05-10T14:11:21.632Z,85.74
2023-05-10T14:13:51.948Z,88.07
2023-05-10T14:16:21.180Z,87.00
2023-05-10T14:18:49.881Z,84.99
2023-05-10T14:21:19.932Z,85.02
2023-05-10T14:23:48.531Z,83.32
2023-05-10T14:26:17.202Z,82.87
2023-05-10T14:28:45.950Z,82.21
2023-05-10T14:31:15.153Z,83.30
2023-05-10T14:33:43.887Z,78.50
2023-05-10T14:36:12.827Z,81.98
2023-05-10T14:38:42.897Z,83.55
2023-05-10T14:41:14.973Z,80.54
2023-05-10T14:43:43.632Z,81.44
2023-05-10T14:46:12.350Z,82.03
2023-05-10T14:48:41.060Z,80.76
2023-05-10T14:51:09.685Z,77.93
2023-05-10T14:53:38.250Z,79.78
2023-05-10T14:56:08.663Z,80.99
2023-05-10T14:58:37.335Z,78.00
2023-05-10T15:01:06.480Z,78.71
2023-05-10T15:03:35.664Z,80.15
2023-05-10T15:06:05.720Z,79.73
2023-05-10T15:08:34.378Z,78.02
2023-05-10T15:11:04.028Z,78.03
2023-05-10T15:13:33.992Z,77.30
2023-05-10T15:16:02.757Z,76.79
2023-05-10T15:18:31.453Z,79.22
2023-05-10T15:21:00.226Z,79.77
2023-05-10T15:23:29.766Z,81.61
2023-05-10T15:25:58.343Z,79.46
2023-05-10T15:28:26.975Z,79.99
2023-05-10T15:30:57.027Z,80.13
2023-05-10T15:33:25.871Z,79.22
2023-05-10T15:35:55.185Z,78.68
2023-05-10T15:38:23.927Z,78.33
2023-05-10T15:40:53.635Z,74.50
2023-05-10T15:43:22.322Z,76.98
2023-05-10T15:45:51.428Z,77.97
2023-05-10T15:48:21.373Z,77.79
2023-05-10T15:50:50.008Z,75.06
2023-05-10T15:53:18.614Z,75.29
2023-05-10T15:55:47.210Z,76.71
2023-05-10T15:58:15.870Z,77.59
2023-05-10T16:00:44.542Z,75.41
2023-05-10T16:03:13.753Z,74.79
2023-05-10T16:05:43.912Z,72.31
2023-05-10T16:08:12.564Z,74.82
2023-05-10T16:10:42.230Z,74.47
2023-05-10T16:13:10.927Z,72.25
2023-05-10T16:15:39.619Z,77.34
2023-05-10T16:18:08.455Z,71.38
2023-05-10T16:20:37.215Z,71.16
2023-05-10T16:23:08.700Z,72.64
2023-05-10T16:25:37.588Z,65.16
2023-05-10T16:28:06.371Z,66.60
2023-05-10T16:30:35.033Z,68.32
2023-05-10T16:33:05.209Z,70.82
2023-05-10T16:35:33.882Z,72.42
2023-05-10T16:38:02.512Z,71.69
2023-05-10T16:40:33.322Z,75.10
2023-05-10T16:43:02.012Z,73.85
2023-05-10T16:45:32.353Z,74.65
2023-05-10T16:48:01.462Z,75.61
2023-05-10T16:50:30.387Z,69.01
2023-05-10T16:52:58.956Z,72.08
2023-05-10T16:55:27.615Z,72.73
2023-05-10T16:58:00.180Z,72.60
2023-05-10T17:00:28.890Z,70.48
2023-05-10T17:02:57.619Z,72.34
2023-05-10T17:05:27.003Z,68.79
2023-05-10T17:07:55.970Z,70.70
2023-05-10T17:10:25.038Z,71.05
2023-05-10T17:12:53.783Z,72.04
2023-05-10T17:15:23.879Z,77.65
2023-05-10T17:17:52.554Z,80.12
2023-05-10T17:20:21.391Z,73.74
2023-05-10T17:22:50.090Z,74.29
2023-05-10T17:25:19.218Z,75.23
2023-05-10T17:27:48.074Z,76.44
2023-05-10T17:30:16.923Z,77.58
2023-05-10T17:32:46.966Z,77.85
2023-05-10T17:35:16.132Z,78.37
2023-05-10T17:37:45.052Z,79.78
2023-05-10T17:40:13.977Z,80.60
2023-05-10T17:42:42.796Z,80.91
2023-05-10T17:45:11.994Z,79.59
2023-05-10T17:47:40.620Z,79.28
2023-05-10T17:50:11.563Z,79.53
2023-05-10T17:52:40.199Z,78.48
2023-05-10T17:55:09.690Z,78.76
2023-05-10T17:57:38.810Z,79.14
2023-05-10T18:00:09.214Z,81.73
2023-05-10T18:02:37.925Z,84.57
2023-05-10T18:05:07.399Z,86.40
2023-05-10T18:07:37.519Z,87.60
2023-05-10T18:10:07.103Z,88.99
2023-05-10T18:12:35.675Z,90.28
2023-05-10T18:15:04.561Z,90.83
2023-05-10T18:17:34.831Z,89.90
2023-05-10T18:20:03.586Z,88.73
2023-05-10T18:22:32.240Z,92.23
2023-05-10T18:25:02.284Z,91.54
2023-05-10T18:27:30.916Z,87.28
2023-05-10T18:29:59.578Z,87.00
2023-05-10T18:32:28.271Z,90.37
2023-05-10T18:34:58.094Z,93.20
2023-05-10T18:37:26.797Z,90.37
2023-05-10T18:39:55.400Z,90.65
2023-05-10T18:42:25.701Z,89.60
2023-05-10T18:44:54.567Z,89.50
2023-05-10T18:47:23.289Z,93.66
2023-05-10T18:49:52.927Z,90.34
2023-05-10T18:52:21.531Z,86.67
2023-05-10T18:54:50.642Z,89.28
2023-05-10T18:57:21.027Z,85.89
2023-05-10T18:59:51.265Z,87.56
2023-05-10T19:02:19.942Z,88.89
2023-05-10T19:04:48.622Z,86.62
2023-05-10T19:07:17.345Z,91.30
2023-05-10T19:09:45.933Z,90.70
2023-05-10T19:12:15.459Z,87.82
2023-05-10T19:14:44.194Z,88.64
2023-05-10T19:17:14.327Z,84.85
2023-05-10T19:19:44.585Z,89.52
2023-05-10T19:22:13.473Z,89.13
2023-05-10T19:24:42.134Z,89.52
2023-05-10T19:27:11.033Z,88.79
2023-05-10T19:29:39.750Z,91.19
2023-05-10T19:32:09.165Z,89.03
2023-05-10T19:34:39.266Z,89.17
2023-05-10T19:37:07.867Z,88.51
2023-05-10T19:39:36.558Z,90.16
2023-05-10T19:42:05.825Z,89.93
2023-05-10T19:44:34.622Z,91.52
2023-05-10T19:47:04.660Z,93.41
2023-05-10T19:49:33.393Z,92.41
2023-05-10T19:52:03.811Z,93.19
2023-05-10T19:54:32.624Z,93.38
2023-05-10T19:57:01.826Z,91.95
2023-05-10T19:59:30.486Z,92.74
2023-05-10T20:01:59.157Z,92.69
2023-05-10T20:04:28.769Z,91.25
2023-05-10T20:06:57.459Z,92.88
2023-05-10T20:09:27.360Z,94.65
2023-05-10T20:11:56.058Z,94.75
2023-05-10T20:14:24.810Z,91.49
2023-05-10T20:16:53.429Z,91.99
2023-05-10T20:19:22.642Z,91.77
2023-05-10T20:21:51.272Z,91.76
2023-05-10T20:24:19.953Z,90.71
2023-05-10T20:26:50.042Z,91.54
2023-05-10T20:29:18.692Z,92.94
2023-05-10T20:31:47.372Z,93.39
2023-05-10T20:34:16.063Z,95.75
2023-05-10T20:36:44.726Z,96.11
2023-05-10T20:39:14.165Z,96.08
2023-05-10T20:41:43.714Z,96.53
2023-05-10T20:44:13.698Z,96.38
2023-05-10T20:46:42.399Z,96.69
2023-05-10T20:49:11.068Z,96.55
2023-05-10T20:51:39.717Z,97.52
2023-05-10T20:54:08.326Z,97.14
2023-05-10T20:56:36.876Z,96.88
2023-05-10T20:59:05.504Z,97.26
2023-05-10T21:01:35.551Z,97.75
2023-05-10T21:04:04.213Z,96.60
2023-05-10T21:06:33.014Z,97.29
2023-05-10T21:09:01.624Z,97.44
2023-05-10T21:11:30.337Z,97.31
2023-05-10T21:13:59.584Z,97.07
2023-05-10T21:16:28.290Z,96.56
2023-05-10T21:18:58.413Z,96.56
2023-05-10T21:21:27.179Z,97.43
2023-05-10T21:23:55.832Z,98.13
2023-05-10T21:26:24.489Z,97.62
2023-05-10T21:28:53.238Z,95.00
2023-05-10T21:31:21.943Z,93.49
2023-05-10T21:33:50.606Z,92.81
2023-05-10T21:36:20.641Z,92.31
2023-05-10T21:38:50.512Z,91.71
2023-05-10T21:41:19.154Z,90.98
2023-05-10T21:43:47.672Z,92.63
2023-05-10T21:46:16.428Z,93.61
2023-05-10T21:48:45.044Z,90.36
2023-05-10T21:51:13.667Z,91.70
2023-05-10T21:53:43.677Z,92.63
2023-05-10T21:56:12.266Z,91.58
2023-05-10T21:58:40.876Z,90.26
2023-05-10T22:01:09.638Z,90.30
2023-05-10T22:03:38.350Z,90.05
2023-05-10T22:06:08.333Z,91.37
2023-05-10T22:08:36.923Z,89.90
2023-05-10T22:11:06.848Z,89.81
2023-05-10T22:13:35.819Z,89.96
2023-05-10T22:16:04.665Z,89.52
2023-05-10T22:18:33.359Z,88.68
2023-05-10T22:21:01.982Z,88.40
2023-05-10T22:23:30.633Z,88.86
2023-05-10T22:26:01.925Z,88.17
2023-05-10T22:28:31.956Z,89.71
2023-05-10T22:31:00.617Z,89.42
2023-05-10T22:33:29.416Z,88.93
2023-05-10T22:35:58.010Z,88.73
2023-05-10T22:38:26.601Z,89.28
2023-05-10T22:40:55.214Z,90.67
2023-05-10T22:43:23.814Z,92.64
2023-05-10T22:45:54.385Z,93.94
2023-05-10T22:48:23.044Z,95.18
2023-05-10T22:50:51.601Z,95.25
2023-05-10T22:53:20.245Z,95.84
2023-05-10T22:55:48.972Z,96.09
2023-05-10T22:58:17.591Z,96.29
2023-05-10T23:00:46.288Z,95.81
2023-05-10T23:03:16.348Z,96.95
2023-05-10T23:05:44.918Z,93.84
2023-05-10T23:08:13.607Z,93.17
2023-05-10T23:10:42.320Z,94.24
2023-05-10T23:13:10.956Z,93.83
2023-05-10T23:15:40.140Z,94.26
2023-05-10T23:18:09.669Z,94.65
2023-05-10T23:20:41.909Z,94.41
2023-05-10T23:23:10.554Z,95.74
2023-05-10T23:25:39.377Z,95.73
2023-05-10T23:28:08.047Z,94.35
2023-05-10T23:30:36.677Z,93.38
2023-05-10T23:33:05.336Z,92.81
2023-05-10T23:35:33.967Z,93.63
2023-05-10T23:38:03.895Z,95.35
2023-05-10T23:40:32.495Z,95.33
2023-05-10T23:43:01.454Z,95.61
2023-05-10T23:45:30.055Z,95.46
2023-05-10T23:47:58.670Z,95.63
2023-05-10T23:50:27.308Z,95.26
2023-05-10T23:52:55.912Z,95.09
2023-05-10T23:55:25.965Z,95.12
2023-05-10T23:57:54.851Z,95.27
